Time;durP1;ratioP1;P1;durP2;ratioP2;P2;SDS_P1;SDS_P2;PMS_P1;PMS_P2;Temp;Humidity;BMP_temperature;BMP_pressure;BME280_temperature;BME280_humidity;BME280_pressure;Samples;Min_cycle;Max_cycle;Signal;HPM_P1;HPM_P2
2021/12/20 00:01:51;;;;;;;10.15;3.00;;;;;;;7.12;99.09;102712.44;5035668;28;20472;-48
2021/12/20 00:04:19;;;;;;;11.32;3.30;;;;;;;7.12;99.79;102717.88;5035335;28;20045;-46
2021/12/20 00:06:47;;;;;;;10.93;3.65;;;;;;;7.14;99.22;102718.47;5034185;28;20046;-47
2021/12/20 00:09:15;;;;;;;10.95;3.30;;;;;;;7.15;98.98;102708.50;5035608;28;20087;-47
2021/12/20 00:11:43;;;;;;;12.32;3.75;;;;;;;7.13;99.11;102719.53;5035201;28;20508;-50
2021/12/20 00:14:10;;;;;;;11.40;3.53;;;;;;;7.12;98.49;102708.88;5035431;28;20041;-50
2021/12/20 00:16:38;;;;;;;10.85;3.30;;;;;;;7.10;99.41;102709.09;5035532;28;20060;-50
2021/12/20 00:19:09;;;;;;;16.15;3.65;;;;;;;7.10;97.75;102714.50;5035632;28;20038;-47
2021/12/20 00:21:40;;;;;;;14.00;3.60;;;;;;;7.10;98.18;102705.53;5034978;28;20446;-45
2021/12/20 00:24:07;;;;;;;11.95;3.30;;;;;;;7.07;97.76;102714.91;5035053;28;20107;-47
2021/12/20 00:26:35;;;;;;;13.38;3.50;;;;;;;7.04;96.58;102710.69;5035101;28;20026;-47
2021/12/20 00:29:03;;;;;;;14.38;3.50;;;;;;;7.04;97.46;102704.44;5034742;28;20091;-47
2021/12/20 00:31:30;;;;;;;12.50;3.60;;;;;;;7.02;96.91;102691.13;5034660;28;20034;-47
2021/12/20 00:33:58;;;;;;;12.75;3.25;;;;;;;7.04;96.68;102694.44;5034877;28;20049;-50
2021/12/20 00:36:27;;;;;;;11.07;3.80;;;;;;;7.06;96.92;102702.38;5034812;28;20060;-47
2021/12/20 00:41:41;;;;;;;14.45;3.80;;;;;;;7.09;96.58;102693.84;5034845;28;20102;-47
2021/12/20 00:44:08;;;;;;;14.13;3.60;;;;;;;7.08;96.04;102688.63;5034412;28;20049;-46
2021/12/20 00:46:52;;;;;;;13.02;3.72;;;;;;;7.10;96.09;102703.66;5041845;28;20049;-45
2021/12/20 00:49:20;;;;;;;10.95;3.40;;;;;;;7.12;96.05;102706.16;5034782;28;20053;-48
2021/12/20 00:51:48;;;;;;;14.27;3.65;;;;;;;7.11;95.45;102699.91;5034872;28;20036;-53
2021/12/20 00:54:15;;;;;;;11.95;4.00;;;;;;;7.10;95.34;102703.66;5034839;28;20041;-45
2021/12/20 00:56:43;;;;;;;16.35;4.07;;;;;;;7.09;95.67;102704.69;5034413;28;20511;-47
2021/12/20 00:59:11;;;;;;;13.75;3.58;;;;;;;7.09;95.77;102696.56;5033498;28;20053;-46
2021/12/20 01:01:39;;;;;;;14.82;3.60;;;;;;;7.11;94.80;102705.31;5034756;28;20100;-48
2021/12/20 01:04:07;;;;;;;13.68;3.97;;;;;;;7.08;93.37;102705.72;5037909;28;20033;-47
2021/12/20 01:06:35;;;;;;;13.63;4.13;;;;;;;7.07;93.78;102708.63;5047270;28;20034;-47
2021/12/20 01:09:03;;;;;;;12.55;3.80;;;;;;;7.06;94.32;102702.38;5034509;28;20095;-45
2021/12/20 01:11:38;;;;;;;15.25;3.92;;;;;;;7.05;92.79;102692.59;5034339;28;20049;-46
2021/12/20 01:14:06;;;;;;;14.80;3.92;;;;;;;7.01;92.91;102699.44;5034344;28;20048;-47
2021/12/20 01:16:33;;;;;;;14.23;3.95;;;;;;;7.02;93.47;102695.66;5035352;28;20045;-43
2021/12/20 01:19:01;;;;;;;16.48;3.90;;;;;;;7.03;92.98;102694.66;5034240;28;20102;-45
2021/12/20 01:21:30;;;;;;;14.32;3.97;;;;;;;7.02;91.07;102688.41;5034077;28;20061;-47
2021/12/20 01:23:57;;;;;;;18.65;4.68;;;;;;;6.97;91.95;102693.56;5041728;28;20037;-45
2021/12/20 01:26:25;;;;;;;17.30;4.28;;;;;;;6.94;91.14;102688.53;5036475;28;20048;-46
2021/12/20 01:28:53;;;;;;;15.98;4.43;;;;;;;6.93;89.83;102686.03;5052132;28;20049;-46
2021/12/20 01:31:21;;;;;;;14.73;4.82;;;;;;;6.94;91.83;102693.97;5053901;28;20041;-47
2021/12/20 01:33:48;;;;;;;15.25;3.90;;;;;;;6.97;91.35;102698.13;5036315;28;20122;-46
2021/12/20 01:36:16;;;;;;;14.13;3.65;;;;;;;6.99;91.27;102701.50;5033111;28;20048;-47
2021/12/20 01:38:44;;;;;;;13.40;4.03;;;;;;;7.01;91.26;102692.13;5040923;28;20395;-45
2021/12/20 01:41:12;;;;;;;17.13;4.30;;;;;;;7.05;90.70;102695.28;5053315;28;20437;-47
2021/12/20 01:43:39;;;;;;;14.68;4.18;;;;;;;7.06;90.85;102690.72;5046460;28;20166;-47
2021/12/20 01:46:07;;;;;;;16.02;4.88;;;;;;;7.02;88.94;102695.66;5033725;28;20037;-49
2021/12/20 01:48:36;;;;;;;16.63;4.60;;;;;;;6.94;87.39;102698.53;5034671;28;20050;-47
2021/12/20 01:53:33;;;;;;;20.05;4.88;;;;;;;6.86;88.46;102685.16;5033614;28;20063;-46
2021/12/20 01:56:00;;;;;;;16.02;4.22;;;;;;;6.87;88.61;102686.81;5033518;28;20421;-44
2021/12/20 01:58:29;;;;;;;15.35;4.20;;;;;;;6.89;89.38;102682.03;5042926;28;20032;-43
2021/12/20 02:03:41;;;;;;;13.70;4.03;;;;;;;6.95;89.03;102689.38;5038154;28;20049;-43
2021/12/20 02:09:19;;;;;;;18.15;4.18;;;;;;;6.92;87.55;102684.34;5031240;28;20042;-44
2021/12/20 02:11:50;;;;;;;15.07;4.00;;;;;;;6.88;89.42;102683.91;5031289;28;20077;-42
2021/12/20 02:14:19;;;;;;;15.93;4.15;;;;;;;6.94;90.04;102685.00;5031053;28;20045;-42
2021/12/20 02:16:47;;;;;;;19.48;4.72;;;;;;;7.00;90.15;102686.94;5031043;28;20414;-42
2021/12/20 02:19:17;;;;;;;12.77;4.30;;;;;;;7.04;89.71;102680.06;5029424;28;20412;-42
2021/12/20 02:21:45;;;;;;;14.52;4.25;;;;;;;7.06;89.01;102686.13;5028346;28;20049;-42
2021/12/20 02:24:13;;;;;;;16.88;4.40;;;;;;;7.08;89.15;102686.75;5011973;28;20046;-43
2021/12/20 02:26:42;;;;;;;15.13;4.20;;;;;;;7.04;88.55;102688.19;5011317;28;20050;-44
2021/12/20 02:29:10;;;;;;;18.80;5.10;;;;;;;7.03;89.28;102686.53;4995834;28;20049;-45
2021/12/20 02:40:10;;;;;;;13.40;3.90;;;;;;;6.99;88.13;102686.06;4978123;28;20132;-46
2021/12/20 02:42:41;;;;;;;16.65;4.70;;;;;;;6.93;87.75;102680.63;4991613;28;20587;-44
2021/12/20 02:45:14;;;;;;;16.67;4.63;;;;;;;6.88;89.17;102672.22;4991108;28;20046;-48
2021/12/20 02:47:46;;;;;;;17.48;4.20;;;;;;;6.89;88.89;102668.50;4991285;28;20109;-45
2021/12/20 02:50:15;;;;;;;16.17;4.35;;;;;;;6.92;89.06;102668.91;4992852;28;20042;-45
2021/12/20 02:52:43;;;;;;;16.90;4.30;;;;;;;6.94;89.62;102672.28;5011128;28;20049;-41
2021/12/20 02:55:11;;;;;;;15.15;4.43;;;;;;;6.96;88.94;102672.09;5010949;28;20049;-41
2021/12/20 02:57:39;;;;;;;14.27;4.30;;;;;;;6.95;89.28;102678.53;5006065;28;20124;-41
2021/12/20 03:00:09;;;;;;;19.45;4.85;;;;;;;6.94;88.26;102671.44;4993358;28;20042;-43
2021/12/20 03:02:37;;;;;;;15.85;4.20;;;;;;;6.93;88.64;102669.78;5010789;28;20119;-42
2021/12/20 03:05:05;;;;;;;16.70;4.80;;;;;;;6.93;88.02;102669.78;5010913;28;20050;-42
2021/12/20 03:07:41;;;;;;;15.30;4.32;;;;;;;6.94;87.51;102668.72;5010094;28;20038;-47
2021/12/20 03:10:10;;;;;;;17.25;4.45;;;;;;;6.93;88.24;102676.03;5010044;28;20103;-42
2021/12/20 03:12:38;;;;;;;17.27;4.22;;;;;;;6.94;87.71;102674.16;5010446;28;20096;-46
2021/12/20 03:15:12;;;;;;;17.52;4.53;;;;;;;6.91;87.18;102679.97;5019522;28;20102;-45
2021/12/20 03:17:40;;;;;;;16.80;5.13;;;;;;;6.86;87.78;102674.31;5051000;28;20048;-41
2021/12/20 03:20:08;;;;;;;18.23;5.00;;;;;;;6.86;87.26;102671.59;5047987;28;20045;-42
2021/12/20 03:22:36;;;;;;;19.02;4.43;;;;;;;6.88;88.51;102669.50;5032578;28;20089;-41
2021/12/20 03:25:04;;;;;;;17.83;4.47;;;;;;;6.92;87.93;102670.81;5032390;28;20459;-42
2021/12/20 03:27:31;;;;;;;16.98;4.53;;;;;;;6.95;87.56;102668.56;5033449;28;20056;-42
2021/12/20 03:29:59;;;;;;;19.88;4.90;;;;;;;6.98;87.85;102678.16;5050263;28;20041;-43
2021/12/20 03:32:27;;;;;;;17.98;4.82;;;;;;;6.98;86.53;102678.97;5054317;28;20101;-43
2021/12/20 03:34:55;;;;;;;18.80;4.57;;;;;;;6.97;86.99;102680.00;5056197;28;20048;-45
2021/12/20 03:37:22;;;;;;;23.90;5.03;;;;;;;6.97;86.48;102681.88;5056255;28;20341;-46
2021/12/20 03:39:50;;;;;;;17.05;4.47;;;;;;;6.95;86.35;102678.53;5049713;28;20052;-48
2021/12/20 03:42:19;;;;;;;25.17;5.35;;;;;;;6.94;86.33;102682.28;5036348;28;20045;-45
2021/12/20 03:44:46;;;;;;;17.15;4.50;;;;;;;6.91;86.51;102672.69;5035967;28;20054;-43
2021/12/20 03:47:14;;;;;;;17.02;4.93;;;;;;;6.92;85.92;102673.50;5036194;28;20041;-41
2021/12/20 03:49:42;;;;;;;18.88;4.65;;;;;;;6.90;85.79;102673.69;5037118;28;20091;-47
2021/12/20 03:52:10;;;;;;;17.23;4.68;;;;;;;6.92;87.12;102670.81;5036288;28;20065;-46
2021/12/20 03:54:38;;;;;;;17.45;4.75;;;;;;;6.93;86.29;102669.78;5035980;28;20415;-47
2021/12/20 03:57:06;;;;;;;14.30;4.35;;;;;;;6.90;85.27;102672.88;5034564;28;20496;-44
2021/12/20 03:59:34;;;;;;;15.45;4.35;;;;;;;6.88;85.86;102666.81;5048100;28;20129;-42
2021/12/20 04:02:02;;;;;;;17.80;4.40;;;;;;;6.87;85.64;102667.84;5055950;28;20090;-41
2021/12/20 04:04:30;;;;;;;19.50;4.72;;;;;;;6.89;84.15;102671.22;5055674;28;20052;-41
2021/12/20 04:06:58;;;;;;;12.30;4.32;;;;;;;6.89;84.90;102671.22;5055665;28;20055;-43
2021/12/20 04:09:25;;;;;;;14.95;4.18;;;;;;;6.91;85.13;102666.44;5046309;28;20038;-44
2021/12/20 04:11:53;;;;;;;16.55;4.47;;;;;;;6.94;85.87;102660.59;5051495;28;20052;-47
2021/12/20 04:14:21;;;;;;;17.98;4.97;;;;;;;6.92;83.99;102662.66;5046199;28;20045;-47
2021/12/20 04:16:48;;;;;;;17.33;4.55;;;;;;;6.90;83.35;102664.72;5036121;28;20041;-46
2021/12/20 04:19:16;;;;;;;18.08;4.80;;;;;;;6.86;83.57;102667.03;5048641;28;20106;-48
2021/12/20 04:21:44;;;;;;;17.40;4.75;;;;;;;6.83;82.50;102664.69;5035984;28;20049;-48
2021/12/20 04:24:11;;;;;;;19.70;4.80;;;;;;;6.85;83.48;102656.38;5035394;28;20053;-48
2021/12/20 04:26:39;;;;;;;18.23;4.72;;;;;;;6.88;82.98;102661.38;5041484;28;20045;-43
2021/12/20 04:29:07;;;;;;;16.30;4.82;;;;;;;6.87;83.03;102659.72;5055473;28;20037;-49
2021/12/20 04:31:35;;;;;;;16.73;4.65;;;;;;;6.90;82.75;102670.16;5053347;28;20037;-49
2021/12/20 04:34:04;;;;;;;15.38;4.32;;;;;;;6.90;82.41;102667.44;5052168;28;20053;-50
2021/12/20 04:36:33;;;;;;;17.45;4.65;;;;;;;6.89;82.95;102663.91;5035129;28;20099;-46
2021/12/20 04:39:04;;;;;;;17.05;4.30;;;;;;;6.87;82.51;102663.25;5048324;28;20052;-47
2021/12/20 04:41:31;;;;;;;17.67;4.88;;;;;;;6.89;82.95;102663.06;5054375;28;20049;-43
2021/12/20 04:43:59;;;;;;;16.92;4.70;;;;;;;6.90;83.09;102670.16;5053085;28;20103;-44
2021/12/20 04:46:27;;;;;;;20.52;4.75;;;;;;;6.92;82.67;102662.66;5054688;28;20102;-45
2021/12/20 04:48:54;;;;;;;19.23;4.75;;;;;;;6.91;80.76;102664.56;5055166;28;20371;-44
2021/12/20 04:51:22;;;;;;;19.20;4.95;;;;;;;6.88;81.30;102662.25;5053266;28;20040;-49
2021/12/20 04:53:50;;;;;;;16.45;4.70;;;;;;;6.87;81.71;102670.56;5054819;28;20052;-46
2021/12/20 04:56:17;;;;;;;18.15;4.50;;;;;;;6.90;81.96;102679.13;5051242;28;20053;-48
2021/12/20 04:58:45;;;;;;;18.15;4.80;;;;;;;6.91;81.36;102666.44;5033567;28;20485;-48
2021/12/20 05:01:13;;;;;;;18.85;4.85;;;;;;;6.90;81.35;102671.00;5039621;28;20033;-45
2021/12/20 05:03:40;;;;;;;20.38;4.93;;;;;;;6.92;81.53;102673.50;5054445;28;20049;-48
2021/12/20 05:06:08;;;;;;;20.90;4.65;;;;;;;6.92;80.99;102673.50;5054594;28;20376;-49
2021/12/20 05:08:46;;;;;;;16.35;4.88;;;;;;;6.88;80.02;102674.94;5054411;28;20102;-44
2021/12/20 05:11:15;;;;;;;21.23;5.50;;;;;;;6.85;81.42;102678.88;5050605;28;20053;-47
2021/12/20 05:13:43;;;;;;;20.33;4.63;;;;;;;6.87;81.19;102681.41;5053852;28;20045;-47
2021/12/20 05:16:10;;;;;;;19.83;4.90;;;;;;;6.86;81.18;102683.28;5049940;28;20041;-48
2021/12/20 05:18:38;;;;;;;22.30;4.72;;;;;;;6.87;79.52;102681.41;5034196;28;20454;-47
2021/12/20 05:21:06;;;;;;;22.60;5.43;;;;;;;6.76;80.12;102680.91;5034564;28;20102;-44
2021/12/20 05:23:33;;;;;;;16.50;4.30;;;;;;;6.69;80.14;102673.78;5034951;28;20403;-48
2021/12/20 05:26:01;;;;;;;22.80;5.45;;;;;;;6.68;80.07;102682.91;5034404;28;20052;-48
2021/12/20 05:28:29;;;;;;;19.65;5.30;;;;;;;6.65;81.35;102681.44;5034434;28;20049;-49
2021/12/20 05:30:56;;;;;;;18.67;5.50;;;;;;;6.63;80.58;102690.78;5033929;28;20411;-49
2021/12/20 05:33:24;;;;;;;19.45;4.30;;;;;;;6.57;79.92;102690.53;5042214;28;20041;-49
2021/12/20 05:35:52;;;;;;;24.08;5.25;;;;;;;6.47;80.06;102686.47;5050317;28;20037;-47
2021/12/20 05:38:39;;;;;;;19.75;5.35;;;;;;;6.44;80.45;102692.28;5034049;28;20504;-48
2021/12/20 05:41:07;;;;;;;18.20;4.90;;;;;;;6.46;81.21;102687.53;5034098;28;20122;-48
2021/12/20 05:43:35;;;;;;;20.00;5.30;;;;;;;6.43;80.53;102688.75;5034594;28;20063;-48
2021/12/20 05:46:02;;;;;;;16.90;5.35;;;;;;;6.35;80.72;102687.03;5052409;28;20041;-49
2021/12/20 05:48:30;;;;;;;18.67;5.00;;;;;;;6.34;79.64;102693.44;5053737;28;20154;-49
2021/12/20 05:50:58;;;;;;;22.10;5.22;;;;;;;6.34;79.92;102700.75;5053707;28;20341;-48
2021/12/20 05:53:26;;;;;;;22.30;5.10;;;;;;;6.36;79.24;102694.09;5053685;28;20122;-47
2021/12/20 05:55:53;;;;;;;14.10;4.20;;;;;;;6.38;78.50;102694.75;5044586;28;20046;-48
2021/12/20 05:58:21;;;;;;;21.80;5.28;;;;;;;6.40;78.69;102689.97;5033398;28;20432;-49
2021/12/20 06:00:49;;;;;;;16.40;4.55;;;;;;;6.39;78.92;102688.28;5033601;28;20037;-48
2021/12/20 06:03:17;;;;;;;16.63;4.80;;;;;;;6.45;79.41;102686.69;5033258;28;20045;-49
2021/12/20 06:05:44;;;;;;;20.42;4.80;;;;;;;6.47;78.60;102681.06;5044726;28;20041;-47
2021/12/20 06:08:12;;;;;;;21.98;4.38;;;;;;;6.44;76.31;102684.16;5053278;28;20079;-47
2021/12/20 06:10:40;;;;;;;16.77;4.85;;;;;;;6.40;76.22;102679.16;5053134;28;20461;-48
2021/12/20 06:13:08;;;;;;;17.33;5.18;;;;;;;6.43;76.37;102685.22;5052007;28;20045;-48
2021/12/20 06:15:35;;;;;;;18.90;4.75;;;;;;;6.43;76.67;102690.63;5038272;28;20038;-47
2021/12/20 06:18:03;;;;;;;18.27;4.97;;;;;;;6.48;75.91;102682.75;5033339;28;20103;-48
2021/12/20 06:20:31;;;;;;;14.45;4.25;;;;;;;6.55;77.05;102689.06;5033509;28;20396;-45
2021/12/20 06:22:59;;;;;;;16.83;4.32;;;;;;;6.59;74.80;102684.91;5032877;28;20055;-49
2021/12/20 06:25:26;;;;;;;14.65;4.45;;;;;;;6.61;74.64;102696.41;5032901;28;20095;-48
2021/12/20 06:27:54;;;;;;;16.98;4.00;;;;;;;6.59;75.17;102695.75;5033914;28;20055;-48
2021/12/20 06:30:22;;;;;;;19.60;4.90;;;;;;;6.53;74.60;102693.84;5033869;28;20045;-49
2021/12/20 06:32:50;;;;;;;20.17;5.50;;;;;;;6.52;74.55;102694.88;5032881;28;20048;-48
2021/12/20 06:35:34;;;;;;;22.98;5.18;;;;;;;6.42;73.15;102697.06;5050322;28;20094;-48
2021/12/20 06:38:03;;;;;;;17.73;4.75;;;;;;;6.43;74.40;102698.75;5050655;28;20053;-48
2021/12/20 06:40:33;;;;;;;21.05;4.88;;;;;;;6.37;74.29;102698.50;5052575;28;20045;-47
2021/12/20 06:43:02;;;;;;;22.92;5.30;;;;;;;6.33;74.45;102697.19;5042309;28;20045;-48
2021/12/20 06:45:29;;;;;;;15.93;4.35;;;;;;;6.33;74.50;102708.03;5032906;28;20102;-48
2021/12/20 06:47:58;;;;;;;16.27;4.70;;;;;;;6.37;75.29;102711.19;5033412;28;20045;-50
2021/12/20 06:50:25;;;;;;;18.83;4.68;;;;;;;6.41;74.86;102698.94;5031217;28;20119;-51
2021/12/20 06:52:53;;;;;;;15.68;4.40;;;;;;;6.44;75.41;102705.84;5031180;28;20048;-49
2021/12/20 06:55:21;;;;;;;19.88;5.35;;;;;;;6.45;75.84;102704.81;5048444;28;20045;-47
2021/12/20 06:57:49;;;;;;;19.75;4.57;;;;;;;6.52;76.94;102713.84;5047657;28;20106;-48
2021/12/20 07:00:19;;;;;;;18.30;4.40;;;;;;;6.58;76.96;102721.16;5030901;28;20041;-51
2021/12/20 07:02:46;;;;;;;16.58;4.97;;;;;;;6.57;76.35;102711.38;5030758;28;20049;-48
2021/12/20 07:05:14;;;;;;;14.02;4.25;;;;;;;6.58;77.05;102715.75;5031141;28;20049;-50
2021/12/20 07:07:42;;;;;;;18.27;5.10;;;;;;;6.61;77.70;102720.78;5030455;28;20496;-49
2021/12/20 07:10:10;;;;;;;14.70;4.30;;;;;;;6.67;78.11;102725.44;5045875;28;20047;-48
2021/12/20 07:12:38;;;;;;;15.07;4.00;;;;;;;6.70;77.26;102725.03;5043752;28;20123;-48
2021/12/20 07:15:10;;;;;;;13.80;4.53;;;;;;;6.71;77.30;102725.84;5030882;28;20049;-48
2021/12/20 07:17:39;;;;;;;18.77;4.70;;;;;;;6.68;77.67;102727.09;5030775;28;20111;-51
2021/12/20 07:20:07;;;;;;;17.98;4.60;;;;;;;6.67;77.47;102720.00;5031649;28;20053;-50
2021/12/20 07:22:35;;;;;;;19.45;4.72;;;;;;;6.68;77.91;102720.84;5045940;28;20045;-51
2021/12/20 07:25:03;;;;;;;20.40;5.03;;;;;;;6.66;78.56;102723.72;5050258;28;20194;-48
2021/12/20 07:27:31;;;;;;;15.70;4.65;;;;;;;6.65;79.34;102727.50;5050726;28;20059;-51
2021/12/20 07:29:59;;;;;;;18.23;4.47;;;;;;;6.64;79.01;102725.81;5048537;28;20577;-48
2021/12/20 07:32:27;;;;;;;21.88;5.05;;;;;;;6.64;79.13;102719.53;5049784;28;20045;-49
2021/12/20 07:34:54;;;;;;;19.05;4.32;;;;;;;6.66;77.88;102718.31;5050552;28;20088;-47
2021/12/20 07:37:25;;;;;;;16.10;4.25;;;;;;;6.67;77.98;102724.59;5033447;28;20045;-46
2021/12/20 07:39:53;;;;;;;17.95;4.50;;;;;;;6.66;76.75;102733.72;5039097;28;20067;-45
2021/12/20 07:42:21;;;;;;;18.75;4.65;;;;;;;6.57;77.30;102719.50;5035456;28;20053;-47
2021/12/20 07:44:48;;;;;;;17.42;4.50;;;;;;;6.54;76.63;102722.59;5039652;28;20083;-49
2021/12/20 07:47:36;;;;;;;17.27;4.25;;;;;;;6.51;77.50;102733.81;5030393;28;20045;-47
2021/12/20 07:50:08;;;;;;;17.90;4.68;;;;;;;6.49;78.60;102725.03;5031621;28;20052;-47
2021/12/20 07:52:36;;;;;;;20.67;4.90;;;;;;;6.50;77.95;102734.84;5041151;28;20063;-46
2021/12/20 07:55:04;;;;;;;19.50;5.03;;;;;;;6.46;78.82;102734.38;5050246;28;20492;-48
2021/12/20 07:57:32;;;;;;;17.88;4.45;;;;;;;6.44;78.97;102731.03;5050279;28;20115;-50
2021/12/20 08:00:00;;;;;;;17.88;5.03;;;;;;;6.52;79.41;102732.78;5050243;28;20067;-46
2021/12/20 08:02:27;;;;;;;21.10;4.80;;;;;;;6.57;80.41;102728.47;5048672;28;20048;-57
2021/12/20 08:04:55;;;;;;;23.05;4.90;;;;;;;6.58;79.67;102726.59;5050176;28;20382;-46
2021/12/20 08:07:23;;;;;;;18.95;5.13;;;;;;;6.55;80.44;102735.09;5050357;28;20041;-52
2021/12/20 08:09:51;;;;;;;20.15;5.22;;;;;;;6.57;80.20;102733.06;5049840;28;20052;-44
2021/12/20 08:12:19;;;;;;;20.08;4.95;;;;;;;6.58;81.12;102732.84;5030227;28;20041;-47
2021/12/20 08:14:47;;;;;;;23.25;5.00;;;;;;;6.58;80.84;102732.00;5030125;28;20411;-50
2021/12/20 08:17:15;;;;;;;23.80;5.22;;;;;;;6.56;81.73;102739.47;5029890;28;20716;-49
2021/12/20 08:19:42;;;;;;;21.50;5.40;;;;;;;6.46;80.85;102739.81;5032166;28;20034;-52
2021/12/20 08:22:10;;;;;;;22.38;4.93;;;;;;;6.46;81.27;102739.81;5033508;28;20037;-51
2021/12/20 08:24:38;;;;;;;20.17;5.63;;;;;;;6.51;82.06;102748.19;5033231;28;20057;-50
2021/12/20 08:27:05;;;;;;;25.10;5.78;;;;;;;6.52;82.41;102755.28;5033361;28;20186;-46
2021/12/20 08:29:33;;;;;;;19.73;5.72;;;;;;;6.54;82.89;102752.38;5033334;28;20427;-47
2021/12/20 08:32:02;;;;;;;17.95;5.60;;;;;;;6.56;83.01;102756.56;5032978;28;20057;-47
2021/12/20 08:34:31;;;;;;;18.05;4.95;;;;;;;6.57;82.99;102750.13;5033356;28;20041;-42
2021/12/20 08:37:01;;;;;;;23.23;5.07;;;;;;;6.55;82.20;102745.94;5033600;28;20671;-45
2021/12/20 08:39:30;;;;;;;21.83;5.22;;;;;;;6.56;83.32;102750.31;5033146;28;20054;-47
2021/12/20 08:41:58;;;;;;;18.55;5.22;;;;;;;6.58;83.62;102754.50;5033055;28;20045;-47
2021/12/20 08:44:26;;;;;;;24.17;5.43;;;;;;;6.59;83.48;102758.03;5032652;28;20045;-45
2021/12/20 08:46:54;;;;;;;26.15;5.93;;;;;;;6.52;82.52;102762.59;5032650;28;20045;-49
2021/12/20 08:49:22;;;;;;;27.45;5.60;;;;;;;6.39;82.96;102755.16;5032888;28;20050;-49
2021/12/20 08:51:50;;;;;;;20.90;5.32;;;;;;;6.31;83.14;102753.41;5031208;28;20542;-49
2021/12/20 08:54:17;;;;;;;19.73;5.65;;;;;;;6.32;84.43;102752.34;5032779;28;20053;-47
2021/12/20 08:56:45;;;;;;;23.52;5.88;;;;;;;6.39;84.89;102749.72;5032416;28;20049;-47
2021/12/20 08:59:14;;;;;;;19.73;5.10;;;;;;;6.47;84.37;102754.19;5032846;28;20049;-47
2021/12/20 09:01:41;;;;;;;22.13;6.18;;;;;;;6.55;84.59;102759.47;5032376;28;20042;-47
2021/12/20 09:04:10;;;;;;;18.50;4.80;;;;;;;6.58;83.99;102749.09;5032407;28;20366;-46
2021/12/20 09:06:39;;;;;;;24.52;6.20;;;;;;;6.62;82.95;102749.56;5032228;28;20048;-48
2021/12/20 09:09:09;;;;;;;23.13;5.78;;;;;;;6.53;83.02;102754.25;5032263;28;20384;-48
2021/12/20 09:11:37;;;;;;;20.65;5.68;;;;;;;6.45;83.99;102761.69;5031718;28;20046;-49
2021/12/20 09:14:12;;;;;;;23.15;6.00;;;;;;;6.48;84.40;102764.81;5032184;28;20068;-48
2021/12/20 09:16:41;;;;;;;22.40;6.50;;;;;;;6.49;83.96;102768.38;5037192;28;20072;-48
2021/12/20 09:19:09;;;;;;;20.02;5.55;;;;;;;6.48;83.47;102764.81;5031649;28;20048;-47
2021/12/20 09:21:36;;;;;;;20.08;5.78;;;;;;;6.36;83.76;102764.50;5032344;28;20476;-47
2021/12/20 09:24:06;;;;;;;25.55;5.60;;;;;;;6.33;84.10;102766.75;5031316;28;20391;-51
2021/12/20 09:26:34;;;;;;;20.10;5.72;;;;;;;6.33;84.75;102769.47;5031886;28;20061;-47
2021/12/20 09:29:02;;;;;;;23.00;5.30;;;;;;;6.31;84.50;102772.34;5032221;28;20096;-49
2021/12/20 09:31:30;;;;;;;25.55;5.97;;;;;;;6.30;84.22;102773.41;5031635;28;20069;-47
2021/12/20 09:33:58;;;;;;;20.90;5.10;;;;;;;6.32;84.83;102781.31;5031534;28;20187;-45
2021/12/20 09:36:29;;;;;;;23.00;5.63;;;;;;;6.31;84.47;102785.91;5032024;28;20048;-47
2021/12/20 09:38:58;;;;;;;22.02;5.45;;;;;;;6.25;84.05;102780.41;5031680;28;20534;-47
2021/12/20 09:44:11;;;;;;;21.23;5.13;;;;;;;6.25;85.13;102783.09;5041644;28;20049;-46
2021/12/20 09:46:40;;;;;;;19.35;5.22;;;;;;;6.32;84.96;102790.25;5051164;28;20041;-48
2021/12/20 09:49:09;;;;;;;20.83;4.97;;;;;;;6.34;83.17;102790.91;4692178;28;10000599;-46
2021/12/20 09:51:37;;;;;;;19.02;5.05;;;;;;;6.31;84.22;102795.88;5031313;28;20074;-48
2021/12/20 09:54:05;;;;;;;19.52;5.65;;;;;;;6.35;84.71;102798.03;5032232;28;20052;-48
2021/12/20 09:56:33;;;;;;;20.65;4.60;;;;;;;6.38;84.75;102784.09;5031037;28;20076;-45
2021/12/20 09:59:01;;;;;;;20.33;5.50;;;;;;;6.41;84.09;102791.00;5029897;28;20063;-49
2021/12/20 10:01:29;;;;;;;16.30;5.78;;;;;;;6.35;83.97;102794.47;5031149;28;20099;-47
2021/12/20 10:03:57;;;;;;;19.77;5.20;;;;;;;6.36;83.62;102791.56;5032207;28;20148;-47
2021/12/20 10:06:26;;;;;;;19.88;5.85;;;;;;;6.37;83.85;102800.53;5043120;28;20075;-48
2021/12/20 10:08:56;;;;;;;17.95;4.78;;;;;;;6.37;83.41;102801.38;5051038;28;20049;-46
2021/12/20 10:11:29;;;;;;;16.30;4.40;;;;;;;6.37;83.61;102800.53;5050586;28;20379;-49
2021/12/20 10:14:05;;;;;;;17.90;5.47;;;;;;;6.36;83.52;102799.69;5050525;28;20045;-48
2021/12/20 10:16:35;;;;;;;16.42;4.70;;;;;;;6.37;84.42;102801.38;5031083;28;20049;-47
2021/12/20 10:19:05;;;;;;;15.75;5.55;;;;;;;6.42;83.40;102803.50;5031193;28;20076;-49
2021/12/20 10:21:44;;;;;;;15.65;5.20;;;;;;;6.46;84.15;102793.13;5031315;28;20055;-48
2021/12/20 10:24:30;;;;;;;19.00;4.53;;;;;;;6.51;84.10;102791.50;5030889;28;20056;-49
2021/12/20 10:26:58;;;;;;;13.25;4.13;;;;;;;6.54;84.32;102790.28;5032145;28;20049;-48
2021/12/20 10:29:26;;;;;;;18.55;5.13;;;;;;;6.56;83.21;102790.94;5030997;28;20072;-48
2021/12/20 10:31:54;;;;;;;16.35;4.57;;;;;;;6.52;83.01;102793.22;5030560;28;20134;-48
2021/12/20 10:34:33;;;;;;;16.48;4.93;;;;;;;6.49;83.40;102782.75;5030774;28;20464;-46
2021/12/20 10:37:02;;;;;;;18.77;4.70;;;;;;;6.52;83.08;102793.22;5031935;28;20496;-50
2021/12/20 10:39:41;;;;;;;14.68;4.60;;;;;;;6.45;82.44;102792.31;5030634;28;20084;-50
2021/12/20 10:42:20;;;;;;;15.55;4.20;;;;;;;6.46;82.80;102798.53;5047961;28;20044;-49
2021/12/20 10:45:13;;;;;;;21.17;5.45;;;;;;;6.39;83.16;102799.28;5050343;28;20048;-46
2021/12/20 10:47:42;;;;;;;17.23;5.53;;;;;;;6.39;83.65;102790.34;5038653;28;20703;-49
2021/12/20 10:50:43;;;;;;;18.50;4.97;;;;;;;6.46;83.85;102785.84;5030215;28;20071;-48
2021/12/20 10:53:20;;;;;;;22.00;5.32;;;;;;;6.55;84.06;102792.81;5027787;28;20434;-44
2021/12/20 10:55:50;;;;;;;18.08;5.60;;;;;;;6.63;83.25;102789.13;5044971;28;20041;-47
2021/12/20 10:58:31;;;;;;;16.70;4.65;;;;;;;6.70;82.41;102795.47;5045228;28;20057;-47
2021/12/20 11:01:17;;;;;;;22.30;5.05;;;;;;;6.74;81.34;102788.63;5047293;28;20053;-49
2021/12/20 11:03:53;;;;;;;;;;;;;;;6.73;81.06;102791.53;5048144;28;20395;-48
2021/12/20 11:09:05;;;;;;;17.35;4.95;;;;;;;6.66;80.34;102777.91;5011297;28;20044;-44
2021/12/20 11:11:34;;;;;;;20.50;5.22;;;;;;;6.58;81.57;102775.34;5036952;28;20049;-47
2021/12/20 11:14:04;;;;;;;19.52;5.30;;;;;;;6.63;82.08;102782.88;5043806;28;20045;-44
2021/12/20 11:16:44;;;;;;;17.20;5.07;;;;;;;6.65;82.33;102778.94;5041894;28;20060;-47
2021/12/20 11:19:32;;;;;;;20.27;5.47;;;;;;;6.63;81.59;102775.59;5033901;28;20037;-46
2021/12/20 11:22:07;;;;;;;18.35;4.78;;;;;;;6.68;81.95;102777.72;5045628;28;20060;-46
2021/12/20 11:24:39;;;;;;;20.92;5.22;;;;;;;6.73;81.83;102772.56;5045283;28;20053;-47
2021/12/20 11:27:15;;;;;;;18.00;5.05;;;;;;;6.78;81.48;102773.66;5031673;28;20403;-47
2021/12/20 11:29:44;;;;;;;18.23;5.50;;;;;;;6.83;81.79;102773.91;5034991;28;20440;-43
2021/12/20 11:32:12;;;;;;;18.15;5.50;;;;;;;6.91;81.27;102774.81;5037934;28;20057;-47
2021/12/20 11:34:42;;;;;;;20.00;5.47;;;;;;;6.97;80.12;102769.44;5044195;28;20133;-44
2021/12/20 11:37:15;;;;;;;17.50;5.13;;;;;;;6.96;80.35;102773.19;5045351;28;20072;-47
2021/12/20 11:39:44;;;;;;;16.95;5.75;;;;;;;6.97;80.17;102768.59;5045955;28;20098;-49
2021/12/20 11:42:13;;;;;;;22.15;6.25;;;;;;;7.01;79.54;102772.59;5048785;28;20041;-47
2021/12/20 11:44:43;;;;;;;21.77;5.65;;;;;;;7.01;79.36;102767.19;5048761;28;20045;-43
2021/12/20 11:47:38;;;;;;;18.10;5.18;;;;;;;7.01;79.39;102770.72;5042440;28;20060;-45
2021/12/20 11:50:10;;;;;;;19.50;5.22;;;;;;;7.04;79.65;102769.50;5034767;28;20049;-46
2021/12/20 11:52:43;;;;;;;24.25;5.80;;;;;;;6.92;78.62;102768.34;5045969;28;20037;-47
2021/12/20 11:55:20;;;;;;;23.92;6.22;;;;;;;6.86;80.08;102777.28;5048190;28;20068;-47
2021/12/20 11:57:50;;;;;;;23.85;5.97;;;;;;;6.76;79.97;102770.31;5037479;28;20057;-46
2021/12/20 12:00:29;;;;;;;24.73;5.45;;;;;;;6.75;80.53;102767.78;5052621;28;20040;-45